sensor_id;sensor_type;location;lat;lon;timestamp;P1;durP1;ratioP1;P2;durP2;ratioP2
60026;SDS011;45891;53.006;6.512;2022-10-16T00:00:41;8.95;;;2.20;;
60026;SDS011;45891;53.006;6.512;2022-10-16T00:03:08;11.50;;;2.38;;
60026;SDS011;45891;53.006;6.512;2022-10-16T00:05:39;13.55;;;2.50;;
60026;SDS011;45891;53.006;6.512;2022-10-16T00:08:07;11.73;;;2.17;;
60026;SDS011;45891;53.006;6.512;2022-10-16T00:10:34;9.30;;;2.20;;
60026;SDS011;45891;53.006;6.512;2022-10-16T00:13:00;11.02;;;2.10;;
60026;SDS011;45891;53.006;6.512;2022-10-16T00:15:26;15.07;;;2.40;;
60026;SDS011;45891;53.006;6.512;2022-10-16T00:17:53;13.07;;;2.40;;
60026;SDS011;45891;53.006;6.512;2022-10-16T00:20:19;11.02;;;2.00;;
60026;SDS011;45891;53.006;6.512;2022-10-16T00:22:45;9.98;;;1.92;;
60026;SDS011;45891;53.006;6.512;2022-10-16T00:25:11;12.75;;;2.42;;
60026;SDS011;45891;53.006;6.512;2022-10-16T00:27:37;10.23;;;2.40;;
60026;SDS011;45891;53.006;6.512;2022-10-16T00:30:04;13.02;;;2.20;;
60026;SDS011;45891;53.006;6.512;2022-10-16T00:32:31;12.90;;;2.85;;
60026;SDS011;45891;53.006;6.512;2022-10-16T00:34:57;14.90;;;2.22;;
60026;SDS011;45891;53.006;6.512;2022-10-16T00:37:23;10.02;;;1.95;;
60026;SDS011;45891;53.006;6.512;2022-10-16T00:39:49;13.63;;;2.40;;
60026;SDS011;45891;53.006;6.512;2022-10-16T00:42:16;12.10;;;1.95;;
60026;SDS011;45891;53.006;6.512;2022-10-16T00:44:48;10.73;;;2.13;;
60026;SDS011;45891;53.006;6.512;2022-10-16T00:47:22;12.55;;;1.80;;
60026;SDS011;45891;53.006;6.512;2022-10-16T00:49:59;13.85;;;2.03;;
60026;SDS011;45891;53.006;6.512;2022-10-16T00:52:31;10.23;;;1.65;;
60026;SDS011;45891;53.006;6.512;2022-10-16T00:54:58;13.18;;;2.30;;
60026;SDS011;45891;53.006;6.512;2022-10-16T00:57:25;8.20;;;1.55;;
60026;SDS011;45891;53.006;6.512;2022-10-16T00:59:52;10.57;;;1.70;;
60026;SDS011;45891;53.006;6.512;2022-10-16T01:02:19;13.02;;;2.20;;
60026;SDS011;45891;53.006;6.512;2022-10-16T01:04:47;9.60;;;2.03;;
60026;SDS011;45891;53.006;6.512;2022-10-16T01:18:08;10.73;;;2.20;;
60026;SDS011;45891;53.006;6.512;2022-10-16T01:20:45;9.95;;;1.88;;
60026;SDS011;45891;53.006;6.512;2022-10-16T01:28:56;9.43;;;1.85;;
60026;SDS011;45891;53.006;6.512;2022-10-16T01:31:33;9.23;;;1.98;;
60026;SDS011;45891;53.006;6.512;2022-10-16T01:34:03;9.23;;;1.85;;
60026;SDS011;45891;53.006;6.512;2022-10-16T01:36:38;10.82;;;1.83;;
60026;SDS011;45891;53.006;6.512;2022-10-16T01:39:08;8.10;;;1.80;;
60026;SDS011;45891;53.006;6.512;2022-10-16T01:41:41;9.13;;;1.63;;
60026;SDS011;45891;53.006;6.512;2022-10-16T01:44:14;10.93;;;2.05;;
60026;SDS011;45891;53.006;6.512;2022-10-16T01:46:46;9.68;;;1.67;;
60026;SDS011;45891;53.006;6.512;2022-10-16T01:49:15;10.75;;;1.75;;
60026;SDS011;45891;53.006;6.512;2022-10-16T01:51:44;8.88;;;1.80;;
60026;SDS011;45891;53.006;6.512;2022-10-16T01:54:12;11.85;;;1.95;;
60026;SDS011;45891;53.006;6.512;2022-10-16T01:56:41;11.65;;;1.80;;
60026;SDS011;45891;53.006;6.512;2022-10-16T01:59:15;10.00;;;1.77;;
60026;SDS011;45891;53.006;6.512;2022-10-16T02:01:45;9.98;;;1.90;;
60026;SDS011;45891;53.006;6.512;2022-10-16T02:04:15;7.65;;;1.58;;
60026;SDS011;45891;53.006;6.512;2022-10-16T02:06:43;10.93;;;1.98;;
60026;SDS011;45891;53.006;6.512;2022-10-16T02:09:09;7.43;;;1.60;;
60026;SDS011;45891;53.006;6.512;2022-10-16T02:11:35;10.93;;;1.88;;
60026;SDS011;45891;53.006;6.512;2022-10-16T02:14:03;8.82;;;1.73;;
60026;SDS011;45891;53.006;6.512;2022-10-16T02:16:34;10.60;;;1.80;;
60026;SDS011;45891;53.006;6.512;2022-10-16T02:19:06;8.38;;;1.75;;
60026;SDS011;45891;53.006;6.512;2022-10-16T02:21:35;10.70;;;1.90;;
60026;SDS011;45891;53.006;6.512;2022-10-16T02:26:40;7.90;;;1.80;;
60026;SDS011;45891;53.006;6.512;2022-10-16T02:29:10;7.95;;;1.60;;
60026;SDS011;45891;53.006;6.512;2022-10-16T02:31:41;8.60;;;1.90;;
60026;SDS011;45891;53.006;6.512;2022-10-16T02:34:11;7.60;;;1.50;;
60026;SDS011;45891;53.006;6.512;2022-10-16T02:36:39;9.75;;;2.13;;
60026;SDS011;45891;53.006;6.512;2022-10-16T02:39:07;8.10;;;1.98;;
60026;SDS011;45891;53.006;6.512;2022-10-16T02:41:34;9.43;;;1.95;;
60026;SDS011;45891;53.006;6.512;2022-10-16T02:44:01;7.07;;;1.70;;
60026;SDS011;45891;53.006;6.512;2022-10-16T02:46:27;10.45;;;1.70;;
60026;SDS011;45891;53.006;6.512;2022-10-16T02:48:53;10.13;;;1.80;;
60026;SDS011;45891;53.006;6.512;2022-10-16T02:51:20;11.93;;;2.13;;
60026;SDS011;45891;53.006;6.512;2022-10-16T02:53:46;8.15;;;1.90;;
60026;SDS011;45891;53.006;6.512;2022-10-16T02:56:12;5.97;;;1.50;;
60026;SDS011;45891;53.006;6.512;2022-10-16T02:58:38;10.27;;;2.00;;
60026;SDS011;45891;53.006;6.512;2022-10-16T03:01:04;8.05;;;1.90;;
60026;SDS011;45891;53.006;6.512;2022-10-16T03:03:30;8.55;;;1.77;;
60026;SDS011;45891;53.006;6.512;2022-10-16T03:05:56;9.32;;;1.80;;
60026;SDS011;45891;53.006;6.512;2022-10-16T03:08:23;9.32;;;1.90;;
60026;SDS011;45891;53.006;6.512;2022-10-16T03:10:51;8.50;;;2.00;;
60026;SDS011;45891;53.006;6.512;2022-10-16T03:13:17;10.07;;;2.17;;
60026;SDS011;45891;53.006;6.512;2022-10-16T03:15:46;9.38;;;2.10;;
60026;SDS011;45891;53.006;6.512;2022-10-16T03:18:12;10.52;;;2.15;;
60026;SDS011;45891;53.006;6.512;2022-10-16T03:20:38;8.93;;;1.75;;
60026;SDS011;45891;53.006;6.512;2022-10-16T03:23:06;8.63;;;1.88;;
60026;SDS011;45891;53.006;6.512;2022-10-16T03:25:33;8.18;;;1.90;;
60026;SDS011;45891;53.006;6.512;2022-10-16T03:27:59;7.55;;;1.90;;
60026;SDS011;45891;53.006;6.512;2022-10-16T03:30:25;13.18;;;2.10;;
60026;SDS011;45891;53.006;6.512;2022-10-16T03:32:52;9.35;;;2.00;;
60026;SDS011;45891;53.006;6.512;2022-10-16T03:35:20;11.43;;;2.00;;
60026;SDS011;45891;53.006;6.512;2022-10-16T03:37:46;8.77;;;2.10;;
60026;SDS011;45891;53.006;6.512;2022-10-16T03:40:13;7.65;;;2.00;;
60026;SDS011;45891;53.006;6.512;2022-10-16T03:42:39;7.63;;;2.13;;
60026;SDS011;45891;53.006;6.512;2022-10-16T03:45:07;9.05;;;1.98;;
60026;SDS011;45891;53.006;6.512;2022-10-16T03:47:33;10.77;;;2.38;;
60026;SDS011;45891;53.006;6.512;2022-10-16T03:50:00;7.88;;;1.80;;
60026;SDS011;45891;53.006;6.512;2022-10-16T03:52:26;9.93;;;2.00;;
60026;SDS011;45891;53.006;6.512;2022-10-16T03:54:52;10.65;;;2.08;;
60026;SDS011;45891;53.006;6.512;2022-10-16T03:57:18;8.40;;;2.10;;
60026;SDS011;45891;53.006;6.512;2022-10-16T03:59:46;7.93;;;2.07;;
60026;SDS011;45891;53.006;6.512;2022-10-16T04:02:12;8.50;;;1.95;;
60026;SDS011;45891;53.006;6.512;2022-10-16T04:04:39;10.75;;;2.00;;
60026;SDS011;45891;53.006;6.512;2022-10-16T04:07:05;9.25;;;2.08;;
60026;SDS011;45891;53.006;6.512;2022-10-16T04:09:31;9.27;;;1.90;;
60026;SDS011;45891;53.006;6.512;2022-10-16T04:11:57;9.88;;;2.25;;
60026;SDS011;45891;53.006;6.512;2022-10-16T04:14:23;7.07;;;2.00;;
60026;SDS011;45891;53.006;6.512;2022-10-16T04:16:49;9.32;;;2.20;;
60026;SDS011;45891;53.006;6.512;2022-10-16T04:19:16;13.13;;;1.98;;
60026;SDS011;45891;53.006;6.512;2022-10-16T04:21:42;7.65;;;2.00;;
60026;SDS011;45891;53.006;6.512;2022-10-16T04:24:08;7.40;;;1.90;;
60026;SDS011;45891;53.006;6.512;2022-10-16T04:26:34;7.20;;;2.17;;
60026;SDS011;45891;53.006;6.512;2022-10-16T04:29:00;9.32;;;2.05;;
60026;SDS011;45891;53.006;6.512;2022-10-16T04:31:26;10.13;;;2.30;;
60026;SDS011;45891;53.006;6.512;2022-10-16T04:33:53;10.88;;;2.30;;
60026;SDS011;45891;53.006;6.512;2022-10-16T04:36:19;10.57;;;2.30;;
60026;SDS011;45891;53.006;6.512;2022-10-16T04:38:45;8.95;;;2.22;;
60026;SDS011;45891;53.006;6.512;2022-10-16T04:41:11;12.35;;;2.35;;
60026;SDS011;45891;53.006;6.512;2022-10-16T04:43:37;9.93;;;2.40;;
60026;SDS011;45891;53.006;6.512;2022-10-16T04:46:04;10.10;;;2.28;;
60026;SDS011;45891;53.006;6.512;2022-10-16T04:48:30;10.40;;;2.60;;
60026;SDS011;45891;53.006;6.512;2022-10-16T04:50:57;8.93;;;2.55;;
60026;SDS011;45891;53.006;6.512;2022-10-16T04:53:23;9.18;;;2.10;;
60026;SDS011;45891;53.006;6.512;2022-10-16T04:55:49;8.15;;;2.38;;
60026;SDS011;45891;53.006;6.512;2022-10-16T04:58:16;8.88;;;2.60;;
60026;SDS011;45891;53.006;6.512;2022-10-16T05:00:43;11.07;;;2.67;;
60026;SDS011;45891;53.006;6.512;2022-10-16T05:03:10;10.52;;;2.95;;
60026;SDS011;45891;53.006;6.512;2022-10-16T05:05:36;9.52;;;2.53;;
60026;SDS011;45891;53.006;6.512;2022-10-16T05:08:02;9.63;;;2.70;;
60026;SDS011;45891;53.006;6.512;2022-10-16T05:10:29;12.98;;;2.83;;
60026;SDS011;45891;53.006;6.512;2022-10-16T05:12:55;11.40;;;2.58;;
60026;SDS011;45891;53.006;6.512;2022-10-16T05:15:21;8.93;;;2.53;;
60026;SDS011;45891;53.006;6.512;2022-10-16T05:17:52;9.00;;;2.70;;
60026;SDS011;45891;53.006;6.512;2022-10-16T05:20:19;9.98;;;2.67;;
60026;SDS011;45891;53.006;6.512;2022-10-16T05:22:45;9.77;;;2.85;;
60026;SDS011;45891;53.006;6.512;2022-10-16T05:25:11;9.30;;;2.70;;
60026;SDS011;45891;53.006;6.512;2022-10-16T05:27:37;11.05;;;2.90;;
60026;SDS011;45891;53.006;6.512;2022-10-16T05:30:03;10.45;;;2.47;;
60026;SDS011;45891;53.006;6.512;2022-10-16T05:32:30;9.30;;;2.75;;
60026;SDS011;45891;53.006;6.512;2022-10-16T05:34:56;10.27;;;2.40;;
60026;SDS011;45891;53.006;6.512;2022-10-16T05:37:25;11.20;;;3.13;;
60026;SDS011;45891;53.006;6.512;2022-10-16T05:39:52;8.60;;;2.55;;
60026;SDS011;45891;53.006;6.512;2022-10-16T05:42:18;11.85;;;3.00;;
60026;SDS011;45891;53.006;6.512;2022-10-16T05:44:45;12.17;;;2.80;;
60026;SDS011;45891;53.006;6.512;2022-10-16T05:47:12;9.30;;;2.92;;
60026;SDS011;45891;53.006;6.512;2022-10-16T05:49:39;10.07;;;2.55;;
60026;SDS011;45891;53.006;6.512;2022-10-16T05:52:06;10.25;;;3.10;;
60026;SDS011;45891;53.006;6.512;2022-10-16T05:54:32;10.65;;;2.80;;
60026;SDS011;45891;53.006;6.512;2022-10-16T05:56:58;10.88;;;3.17;;
60026;SDS011;45891;53.006;6.512;2022-10-16T05:59:24;8.15;;;2.65;;
60026;SDS011;45891;53.006;6.512;2022-10-16T06:01:50;11.23;;;2.80;;
60026;SDS011;45891;53.006;6.512;2022-10-16T06:04:18;11.13;;;3.08;;
60026;SDS011;45891;53.006;6.512;2022-10-16T06:06:44;9.98;;;2.72;;
60026;SDS011;45891;53.006;6.512;2022-10-16T06:09:10;9.70;;;2.70;;
60026;SDS011;45891;53.006;6.512;2022-10-16T06:11:36;9.63;;;2.67;;
60026;SDS011;45891;53.006;6.512;2022-10-16T06:14:02;10.60;;;2.72;;
60026;SDS011;45891;53.006;6.512;2022-10-16T06:16:35;11.70;;;3.10;;
60026;SDS011;45891;53.006;6.512;2022-10-16T06:19:03;8.90;;;2.63;;
60026;SDS011;45891;53.006;6.512;2022-10-16T06:21:31;11.27;;;2.92;;
60026;SDS011;45891;53.006;6.512;2022-10-16T06:23:58;13.13;;;3.08;;
60026;SDS011;45891;53.006;6.512;2022-10-16T06:26:25;12.10;;;3.20;;
60026;SDS011;45891;53.006;6.512;2022-10-16T06:28:54;9.95;;;2.80;;
60026;SDS011;45891;53.006;6.512;2022-10-16T06:31:21;9.23;;;2.78;;
60026;SDS011;45891;53.006;6.512;2022-10-16T06:33:50;10.63;;;2.70;;
60026;SDS011;45891;53.006;6.512;2022-10-16T06:36:17;9.63;;;2.70;;
60026;SDS011;45891;53.006;6.512;2022-10-16T06:38:44;11.25;;;2.78;;
60026;SDS011;45891;53.006;6.512;2022-10-16T06:41:14;10.60;;;2.88;;
60026;SDS011;45891;53.006;6.512;2022-10-16T06:43:42;10.52;;;2.42;;
60026;SDS011;45891;53.006;6.512;2022-10-16T06:46:11;8.93;;;2.40;;
60026;SDS011;45891;53.006;6.512;2022-10-16T06:48:38;8.90;;;2.50;;
60026;SDS011;45891;53.006;6.512;2022-10-16T06:51:05;9.18;;;2.67;;
60026;SDS011;45891;53.006;6.512;2022-10-16T06:53:37;9.02;;;2.50;;
60026;SDS011;45891;53.006;6.512;2022-10-16T06:58:56;9.63;;;2.70;;
60026;SDS011;45891;53.006;6.512;2022-10-16T07:01:23;9.57;;;2.72;;
60026;SDS011;45891;53.006;6.512;2022-10-16T07:03:50;8.75;;;2.70;;
60026;SDS011;45891;53.006;6.512;2022-10-16T07:06:19;9.77;;;2.83;;
60026;SDS011;45891;53.006;6.512;2022-10-16T07:08:47;7.90;;;2.38;;
60026;SDS011;45891;53.006;6.512;2022-10-16T07:11:14;13.05;;;2.90;;
60026;SDS011;45891;53.006;6.512;2022-10-16T07:13:43;8.05;;;2.72;;
60026;SDS011;45891;53.006;6.512;2022-10-16T07:16:11;10.55;;;2.60;;
60026;SDS011;45891;53.006;6.512;2022-10-16T07:18:42;9.65;;;2.72;;
60026;SDS011;45891;53.006;6.512;2022-10-16T07:21:18;9.60;;;2.65;;
60026;SDS011;45891;53.006;6.512;2022-10-16T07:23:49;9.05;;;2.78;;
60026;SDS011;45891;53.006;6.512;2022-10-16T07:26:17;10.85;;;2.47;;
60026;SDS011;45891;53.006;6.512;2022-10-16T07:28:43;9.60;;;2.30;;
60026;SDS011;45891;53.006;6.512;2022-10-16T07:31:11;9.63;;;2.47;;
60026;SDS011;45891;53.006;6.512;2022-10-16T07:33:39;8.32;;;2.10;;
60026;SDS011;45891;53.006;6.512;2022-10-16T07:36:07;7.75;;;1.98;;
60026;SDS011;45891;53.006;6.512;2022-10-16T07:38:34;9.80;;;2.50;;
60026;SDS011;45891;53.006;6.512;2022-10-16T07:41:01;9.93;;;2.40;;
60026;SDS011;45891;53.006;6.512;2022-10-16T07:43:29;9.55;;;2.28;;
60026;SDS011;45891;53.006;6.512;2022-10-16T07:45:56;10.13;;;2.30;;
60026;SDS011;45891;53.006;6.512;2022-10-16T07:48:22;9.52;;;2.42;;
60026;SDS011;45891;53.006;6.512;2022-10-16T07:50:52;7.78;;;2.17;;
60026;SDS011;45891;53.006;6.512;2022-10-16T07:53:18;9.88;;;2.50;;
60026;SDS011;45891;53.006;6.512;2022-10-16T07:55:44;8.52;;;1.80;;
60026;SDS011;45891;53.006;6.512;2022-10-16T07:58:10;7.63;;;2.00;;
60026;SDS011;45891;53.006;6.512;2022-10-16T08:00:36;8.18;;;2.00;;
60026;SDS011;45891;53.006;6.512;2022-10-16T08:03:02;9.68;;;2.20;;
60026;SDS011;45891;53.006;6.512;2022-10-16T08:05:29;11.27;;;2.40;;
60026;SDS011;45891;53.006;6.512;2022-10-16T08:07:57;8.77;;;2.00;;
60026;SDS011;45891;53.006;6.512;2022-10-16T08:10:25;9.27;;;2.40;;
60026;SDS011;45891;53.006;6.512;2022-10-16T08:12:52;8.32;;;1.80;;
60026;SDS011;45891;53.006;6.512;2022-10-16T08:15:19;9.82;;;1.98;;
60026;SDS011;45891;53.006;6.512;2022-10-16T08:17:59;9.65;;;2.10;;
60026;SDS011;45891;53.006;6.512;2022-10-16T08:20:26;8.40;;;1.80;;
60026;SDS011;45891;53.006;6.512;2022-10-16T08:22:53;8.90;;;1.80;;
60026;SDS011;45891;53.006;6.512;2022-10-16T08:25:23;10.30;;;1.90;;
60026;SDS011;45891;53.006;6.512;2022-10-16T08:27:50;9.23;;;1.80;;
60026;SDS011;45891;53.006;6.512;2022-10-16T08:30:17;11.95;;;1.70;;
60026;SDS011;45891;53.006;6.512;2022-10-16T08:32:47;6.82;;;1.50;;
60026;SDS011;45891;53.006;6.512;2022-10-16T08:35:16;8.70;;;1.60;;
60026;SDS011;45891;53.006;6.512;2022-10-16T08:37:45;9.82;;;1.40;;
60026;SDS011;45891;53.006;6.512;2022-10-16T08:40:25;8.68;;;1.65;;
60026;SDS011;45891;53.006;6.512;2022-10-16T08:50:55;8.75;;;1.80;;
60026;SDS011;45891;53.006;6.512;2022-10-16T08:53:27;10.65;;;2.03;;
60026;SDS011;45891;53.006;6.512;2022-10-16T08:55:56;8.45;;;1.52;;
60026;SDS011;45891;53.006;6.512;2022-10-16T08:58:27;7.85;;;1.60;;
60026;SDS011;45891;53.006;6.512;2022-10-16T09:00:56;8.18;;;1.70;;
60026;SDS011;45891;53.006;6.512;2022-10-16T09:12:35;9.45;;;1.75;;
60026;SDS011;45891;53.006;6.512;2022-10-16T09:20:56;12.90;;;2.08;;
60026;SDS011;45891;53.006;6.512;2022-10-16T09:23:37;12.77;;;2.00;;
60026;SDS011;45891;53.006;6.512;2022-10-16T09:26:04;11.02;;;1.95;;
60026;SDS011;45891;53.006;6.512;2022-10-16T09:31:01;11.40;;;1.75;;
60026;SDS011;45891;53.006;6.512;2022-10-16T09:33:33;9.85;;;1.85;;
60026;SDS011;45891;53.006;6.512;2022-10-16T09:36:02;17.27;;;2.00;;
60026;SDS011;45891;53.006;6.512;2022-10-16T09:38:31;14.63;;;2.00;;
60026;SDS011;45891;53.006;6.512;2022-10-16T09:41:18;9.52;;;1.77;;
60026;SDS011;45891;53.006;6.512;2022-10-16T09:49:16;14.63;;;2.03;;
60026;SDS011;45891;53.006;6.512;2022-10-16T09:51:51;14.60;;;2.20;;
60026;SDS011;45891;53.006;6.512;2022-10-16T09:54:28;13.40;;;2.00;;
60026;SDS011;45891;53.006;6.512;2022-10-16T09:57:03;10.63;;;1.60;;
60026;SDS011;45891;53.006;6.512;2022-10-16T09:59:33;11.38;;;1.80;;
60026;SDS011;45891;53.006;6.512;2022-10-16T10:02:03;14.82;;;2.17;;
60026;SDS011;45891;53.006;6.512;2022-10-16T10:04:40;9.88;;;1.90;;
60026;SDS011;45891;53.006;6.512;2022-10-16T10:07:16;13.95;;;2.15;;
60026;SDS011;45891;53.006;6.512;2022-10-16T10:09:45;13.45;;;2.35;;
60026;SDS011;45891;53.006;6.512;2022-10-16T10:12:19;13.20;;;2.08;;
60026;SDS011;45891;53.006;6.512;2022-10-16T10:14:51;13.68;;;2.10;;
60026;SDS011;45891;53.006;6.512;2022-10-16T10:17:23;12.45;;;1.90;;
60026;SDS011;45891;53.006;6.512;2022-10-16T10:27:39;19.33;;;2.50;;
60026;SDS011;45891;53.006;6.512;2022-10-16T10:30:18;12.70;;;2.05;;
60026;SDS011;45891;53.006;6.512;2022-10-16T10:32:55;18.60;;;2.30;;
60026;SDS011;45891;53.006;6.512;2022-10-16T10:35:56;11.70;;;1.90;;
60026;SDS011;45891;53.006;6.512;2022-10-16T11:09:38;12.95;;;2.15;;
60026;SDS011;45891;53.006;6.512;2022-10-16T11:12:26;21.60;;;2.58;;
60026;SDS011;45891;53.006;6.512;2022-10-16T11:15:14;14.55;;;2.10;;
60026;SDS011;45891;53.006;6.512;2022-10-16T11:17:46;16.45;;;2.65;;
60026;SDS011;45891;53.006;6.512;2022-10-16T11:22:56;12.98;;;2.10;;
60026;SDS011;45891;53.006;6.512;2022-10-16T11:25:33;13.88;;;2.25;;
60026;SDS011;45891;53.006;6.512;2022-10-16T11:28:14;13.52;;;2.20;;
60026;SDS011;45891;53.006;6.512;2022-10-16T11:38:11;15.68;;;2.40;;
60026;SDS011;45891;53.006;6.512;2022-10-16T11:40:45;16.70;;;2.60;;
60026;SDS011;45891;53.006;6.512;2022-10-16T11:43:19;15.38;;;2.35;;
60026;SDS011;45891;53.006;6.512;2022-10-16T11:45:54;22.08;;;2.75;;
60026;SDS011;45891;53.006;6.512;2022-10-16T11:51:00;12.35;;;2.15;;
60026;SDS011;45891;53.006;6.512;2022-10-16T11:53:50;13.18;;;2.03;;
60026;SDS011;45891;53.006;6.512;2022-10-16T11:59:03;15.73;;;2.45;;
60026;SDS011;45891;53.006;6.512;2022-10-16T12:01:43;13.38;;;2.20;;
60026;SDS011;45891;53.006;6.512;2022-10-16T12:09:29;18.92;;;2.80;;
60026;SDS011;45891;53.006;6.512;2022-10-16T12:11:57;14.23;;;2.35;;
60026;SDS011;45891;53.006;6.512;2022-10-16T12:20:22;14.85;;;2.33;;
60026;SDS011;45891;53.006;6.512;2022-10-16T12:22:58;13.95;;;2.58;;
60026;SDS011;45891;53.006;6.512;2022-10-16T12:25:30;13.93;;;2.17;;
60026;SDS011;45891;53.006;6.512;2022-10-16T12:30:30;15.13;;;2.47;;
60026;SDS011;45891;53.006;6.512;2022-10-16T12:35:46;13.00;;;2.30;;
60026;SDS011;45891;53.006;6.512;2022-10-16T12:40:53;13.88;;;2.42;;
60026;SDS011;45891;53.006;6.512;2022-10-16T12:43:38;13.63;;;2.50;;
60026;SDS011;45891;53.006;6.512;2022-10-16T12:48:38;16.92;;;2.60;;
60026;SDS011;45891;53.006;6.512;2022-10-16T12:51:21;12.30;;;1.90;;
60026;SDS011;45891;53.006;6.512;2022-10-16T12:56:34;14.18;;;2.30;;
60026;SDS011;45891;53.006;6.512;2022-10-16T13:10:36;15.25;;;2.38;;
60026;SDS011;45891;53.006;6.512;2022-10-16T13:18:39;11.88;;;1.90;;
60026;SDS011;45891;53.006;6.512;2022-10-16T13:24:12;10.77;;;2.03;;
60026;SDS011;45891;53.006;6.512;2022-10-16T13:27:02;13.45;;;2.17;;
60026;SDS011;45891;53.006;6.512;2022-10-16T13:29:32;8.68;;;1.40;;
60026;SDS011;45891;53.006;6.512;2022-10-16T13:31:59;11.93;;;1.90;;
60026;SDS011;45891;53.006;6.512;2022-10-16T13:34:32;10.13;;;1.67;;
60026;SDS011;45891;53.006;6.512;2022-10-16T13:36:58;13.40;;;1.98;;
60026;SDS011;45891;53.006;6.512;2022-10-16T13:39:26;12.65;;;1.80;;
60026;SDS011;45891;53.006;6.512;2022-10-16T13:42:06;10.75;;;2.03;;
60026;SDS011;45891;53.006;6.512;2022-10-16T13:44:45;10.30;;;1.85;;
60026;SDS011;45891;53.006;6.512;2022-10-16T13:47:19;12.43;;;2.25;;
60026;SDS011;45891;53.006;6.512;2022-10-16T13:49:46;14.52;;;2.33;;
60026;SDS011;45891;53.006;6.512;2022-10-16T13:52:24;12.38;;;1.90;;
60026;SDS011;45891;53.006;6.512;2022-10-16T13:54:50;13.20;;;2.13;;
60026;SDS011;45891;53.006;6.512;2022-10-16T13:57:16;13.25;;;2.42;;
60026;SDS011;45891;53.006;6.512;2022-10-16T13:59:43;10.83;;;2.10;;
60026;SDS011;45891;53.006;6.512;2022-10-16T14:04:50;13.18;;;2.05;;
60026;SDS011;45891;53.006;6.512;2022-10-16T14:07:24;11.68;;;2.10;;
60026;SDS011;45891;53.006;6.512;2022-10-16T14:09:53;14.35;;;2.42;;
60026;SDS011;45891;53.006;6.512;2022-10-16T14:12:20;14.77;;;2.10;;
60026;SDS011;45891;53.006;6.512;2022-10-16T14:14:49;13.60;;;2.47;;
60026;SDS011;45891;53.006;6.512;2022-10-16T14:17:31;13.52;;;2.13;;
60026;SDS011;45891;53.006;6.512;2022-10-16T14:20:00;15.93;;;2.20;;
60026;SDS011;45891;53.006;6.512;2022-10-16T14:22:39;9.63;;;1.90;;
60026;SDS011;45891;53.006;6.512;2022-10-16T14:27:44;13.55;;;1.95;;
60026;SDS011;45891;53.006;6.512;2022-10-16T14:32:54;12.73;;;2.35;;
60026;SDS011;45891;53.006;6.512;2022-10-16T14:35:35;15.63;;;2.45;;
60026;SDS011;45891;53.006;6.512;2022-10-16T14:38:03;14.18;;;2.13;;
60026;SDS011;45891;53.006;6.512;2022-10-16T14:40:31;13.73;;;2.13;;
60026;SDS011;45891;53.006;6.512;2022-10-16T14:43:00;15.63;;;2.40;;
60026;SDS011;45891;53.006;6.512;2022-10-16T14:45:28;15.63;;;2.25;;
60026;SDS011;45891;53.006;6.512;2022-10-16T14:48:01;16.13;;;2.58;;
60026;SDS011;45891;53.006;6.512;2022-10-16T14:50:31;14.70;;;2.40;;
60026;SDS011;45891;53.006;6.512;2022-10-16T14:52:58;14.55;;;2.42;;
60026;SDS011;45891;53.006;6.512;2022-10-16T14:55:24;14.23;;;2.25;;
60026;SDS011;45891;53.006;6.512;2022-10-16T14:57:51;13.38;;;2.15;;
60026;SDS011;45891;53.006;6.512;2022-10-16T15:00:20;10.88;;;1.92;;
60026;SDS011;45891;53.006;6.512;2022-10-16T15:02:49;12.23;;;2.00;;
60026;SDS011;45891;53.006;6.512;2022-10-16T15:07:43;16.30;;;2.10;;
60026;SDS011;45891;53.006;6.512;2022-10-16T15:10:11;15.65;;;2.40;;
60026;SDS011;45891;53.006;6.512;2022-10-16T15:12:39;13.30;;;2.53;;
60026;SDS011;45891;53.006;6.512;2022-10-16T15:15:14;14.48;;;2.10;;
60026;SDS011;45891;53.006;6.512;2022-10-16T15:17:41;13.73;;;2.30;;
60026;SDS011;45891;53.006;6.512;2022-10-16T15:20:07;14.32;;;2.60;;
60026;SDS011;45891;53.006;6.512;2022-10-16T15:22:34;16.58;;;2.50;;
60026;SDS011;45891;53.006;6.512;2022-10-16T15:25:00;16.40;;;2.22;;
60026;SDS011;45891;53.006;6.512;2022-10-16T15:27:26;16.27;;;2.22;;
60026;SDS011;45891;53.006;6.512;2022-10-16T15:29:52;18.58;;;2.70;;
60026;SDS011;45891;53.006;6.512;2022-10-16T15:32:18;16.33;;;2.47;;
60026;SDS011;45891;53.006;6.512;2022-10-16T15:34:44;14.43;;;2.30;;
60026;SDS011;45891;53.006;6.512;2022-10-16T15:37:10;17.15;;;2.42;;
60026;SDS011;45891;53.006;6.512;2022-10-16T15:39:39;16.77;;;2.35;;
60026;SDS011;45891;53.006;6.512;2022-10-16T15:42:05;17.25;;;2.60;;
60026;SDS011;45891;53.006;6.512;2022-10-16T15:44:31;12.27;;;2.30;;
60026;SDS011;45891;53.006;6.512;2022-10-16T15:46:57;11.27;;;2.03;;
60026;SDS011;45891;53.006;6.512;2022-10-16T15:49:24;15.57;;;2.50;;
60026;SDS011;45891;53.006;6.512;2022-10-16T15:51:50;19.65;;;2.60;;
60026;SDS011;45891;53.006;6.512;2022-10-16T15:54:18;15.85;;;2.88;;
60026;SDS011;45891;53.006;6.512;2022-10-16T15:56:47;16.15;;;2.47;;
60026;SDS011;45891;53.006;6.512;2022-10-16T15:59:13;15.25;;;2.30;;
60026;SDS011;45891;53.006;6.512;2022-10-16T16:01:39;18.85;;;2.58;;
60026;SDS011;45891;53.006;6.512;2022-10-16T16:04:06;17.20;;;2.80;;
60026;SDS011;45891;53.006;6.512;2022-10-16T16:06:32;18.15;;;3.03;;
60026;SDS011;45891;53.006;6.512;2022-10-16T16:08:58;16.88;;;2.67;;
60026;SDS011;45891;53.006;6.512;2022-10-16T16:11:25;16.38;;;2.80;;
60026;SDS011;45891;53.006;6.512;2022-10-16T16:13:51;19.95;;;2.83;;
60026;SDS011;45891;53.006;6.512;2022-10-16T16:16:17;18.20;;;2.80;;
60026;SDS011;45891;53.006;6.512;2022-10-16T16:18:45;15.65;;;2.60;;
60026;SDS011;45891;53.006;6.512;2022-10-16T16:21:11;22.80;;;3.42;;
60026;SDS011;45891;53.006;6.512;2022-10-16T16:23:38;16.25;;;2.92;;
60026;SDS011;45891;53.006;6.512;2022-10-16T16:26:06;16.73;;;2.58;;
60026;SDS011;45891;53.006;6.512;2022-10-16T16:28:40;14.38;;;2.80;;
60026;SDS011;45891;53.006;6.512;2022-10-16T16:31:08;16.70;;;3.17;;
60026;SDS011;45891;53.006;6.512;2022-10-16T16:33:34;16.77;;;2.60;;
60026;SDS011;45891;53.006;6.512;2022-10-16T16:36:01;16.63;;;2.40;;
60026;SDS011;45891;53.006;6.512;2022-10-16T16:38:29;17.48;;;2.92;;
60026;SDS011;45891;53.006;6.512;2022-10-16T16:40:57;16.85;;;3.05;;
60026;SDS011;45891;53.006;6.512;2022-10-16T16:43:26;14.23;;;2.78;;
60026;SDS011;45891;53.006;6.512;2022-10-16T16:45:53;15.77;;;2.70;;
60026;SDS011;45891;53.006;6.512;2022-10-16T16:48:20;20.42;;;2.83;;
60026;SDS011;45891;53.006;6.512;2022-10-16T16:50:47;18.90;;;2.97;;
60026;SDS011;45891;53.006;6.512;2022-10-16T16:53:13;16.65;;;4.38;;
60026;SDS011;45891;53.006;6.512;2022-10-16T16:55:39;20.08;;;4.82;;
60026;SDS011;45891;53.006;6.512;2022-10-16T16:58:06;18.77;;;5.40;;
60026;SDS011;45891;53.006;6.512;2022-10-16T17:00:32;19.65;;;5.30;;
60026;SDS011;45891;53.006;6.512;2022-10-16T17:02:58;14.88;;;4.90;;
60026;SDS011;45891;53.006;6.512;2022-10-16T17:05:24;15.95;;;4.22;;
60026;SDS011;45891;53.006;6.512;2022-10-16T17:07:51;19.23;;;5.07;;
60026;SDS011;45891;53.006;6.512;2022-10-16T17:10:17;24.33;;;4.45;;
60026;SDS011;45891;53.006;6.512;2022-10-16T17:12:43;15.27;;;4.28;;
60026;SDS011;45891;53.006;6.512;2022-10-16T17:15:10;15.85;;;4.60;;
60026;SDS011;45891;53.006;6.512;2022-10-16T17:17:36;19.30;;;4.65;;
60026;SDS011;45891;53.006;6.512;2022-10-16T17:20:02;16.08;;;4.93;;
60026;SDS011;45891;53.006;6.512;2022-10-16T17:22:28;15.45;;;4.72;;
60026;SDS011;45891;53.006;6.512;2022-10-16T17:24:54;15.77;;;4.07;;
60026;SDS011;45891;53.006;6.512;2022-10-16T17:27:21;18.83;;;4.38;;
60026;SDS011;45891;53.006;6.512;2022-10-16T17:29:51;18.00;;;4.80;;